sensor_id;sensor_type;location;lat;lon;timestamp;pressure;altitude;pressure_sealevel;temperature;humidity
20228;BME280;12195;55.790;37.572;2024-01-30T00:01:57;100864.70;;;1.07;77.51
20228;BME280;12195;55.790;37.572;2024-01-30T00:04:30;100879.36;;;1.10;77.22
20228;BME280;12195;55.790;37.572;2024-01-30T00:07:02;100871.56;;;1.04;77.46
20228;BME280;12195;55.790;37.572;2024-01-30T00:09:35;100874.16;;;1.05;77.45
20228;BME280;12195;55.790;37.572;2024-01-30T00:12:08;100878.51;;;1.15;77.16
20228;BME280;12195;55.790;37.572;2024-01-30T00:14:42;100883.69;;;1.23;76.79
20228;BME280;12195;55.790;37.572;2024-01-30T00:17:17;100873.34;;;1.23;76.75
20228;BME280;12195;55.790;37.572;2024-01-30T00:22:26;100872.47;;;1.33;76.61
20228;BME280;12195;55.790;37.572;2024-01-30T00:25:00;100863.83;;;1.16;76.92
20228;BME280;12195;55.790;37.572;2024-01-30T00:27:33;100868.15;;;1.12;77.06
20228;BME280;12195;55.790;37.572;2024-01-30T00:30:06;100873.31;;;1.11;77.20
20228;BME280;12195;55.790;37.572;2024-01-30T00:32:39;100862.10;;;1.12;77.28
20228;BME280;12195;55.790;37.572;2024-01-30T00:35:12;100862.99;;;1.15;77.20
20228;BME280;12195;55.790;37.572;2024-01-30T00:37:44;100869.03;;;1.37;77.17
20228;BME280;12195;55.790;37.572;2024-01-30T00:40:17;100871.61;;;1.35;76.71
20228;BME280;12195;55.790;37.572;2024-01-30T00:42:50;100867.30;;;1.25;76.50
20228;BME280;12195;55.790;37.572;2024-01-30T00:45:22;100860.39;;;1.20;76.80
20228;BME280;12195;55.790;37.572;2024-01-30T00:47:55;100868.16;;;1.21;76.93
20228;BME280;12195;55.790;37.572;2024-01-30T00:50:28;100868.16;;;1.23;76.85
20228;BME280;12195;55.790;37.572;2024-01-30T00:53:00;100868.17;;;1.32;76.58
20228;BME280;12195;55.790;37.572;2024-01-30T00:55:33;100863.87;;;1.31;76.22
20228;BME280;12195;55.790;37.572;2024-01-30T00:58:06;100860.42;;;1.26;76.44
20228;BME280;12195;55.790;37.572;2024-01-30T01:00:39;100851.77;;;1.22;76.71
20228;BME280;12195;55.790;37.572;2024-01-30T01:03:12;100874.19;;;1.25;76.62
20228;BME280;12195;55.790;37.572;2024-01-30T01:05:45;100860.41;;;1.23;76.69
20228;BME280;12195;55.790;37.572;2024-01-30T01:08:18;100857.84;;;1.27;76.45
20228;BME280;12195;55.790;37.572;2024-01-30T01:10:51;100857.83;;;1.33;76.74
20228;BME280;12195;55.790;37.572;2024-01-30T01:13:24;100853.52;;;1.31;76.38
20228;BME280;12195;55.790;37.572;2024-01-30T01:15:56;100851.78;;;1.33;76.60
20228;BME280;12195;55.790;37.572;2024-01-30T01:18:29;100850.91;;;1.26;76.62
20228;BME280;12195;55.790;37.572;2024-01-30T01:21:02;100851.80;;;1.30;76.51
20228;BME280;12195;55.790;37.572;2024-01-30T01:23:35;100849.19;;;1.24;76.77
20228;BME280;12195;55.790;37.572;2024-01-30T01:26:08;100838.84;;;1.22;76.92
20228;BME280;12195;55.790;37.572;2024-01-30T01:28:41;100844.88;;;1.20;77.23
20228;BME280;12195;55.790;37.572;2024-01-30T01:31:14;100847.48;;;1.27;77.15
20228;BME280;12195;55.790;37.572;2024-01-30T01:33:47;100841.43;;;1.24;77.23
20228;BME280;12195;55.790;37.572;2024-01-30T01:36:19;100837.98;;;1.26;77.24
20228;BME280;12195;55.790;37.572;2024-01-30T01:38:52;100830.22;;;1.26;77.41
20228;BME280;12195;55.790;37.572;2024-01-30T01:41:24;100833.68;;;1.25;77.35
20228;BME280;12195;55.790;37.572;2024-01-30T01:43:57;100832.83;;;1.32;77.25
20228;BME280;12195;55.790;37.572;2024-01-30T01:46:32;100807.80;;;1.31;77.00
20228;BME280;12195;55.790;37.572;2024-01-30T01:49:05;100808.69;;;1.35;77.09
20228;BME280;12195;55.790;37.572;2024-01-30T01:51:39;100820.75;;;1.36;76.92
20228;BME280;12195;55.790;37.572;2024-01-30T01:54:14;100811.27;;;1.33;77.15
20228;BME280;12195;55.790;37.572;2024-01-30T01:56:47;100817.31;;;1.34;77.04
20228;BME280;12195;55.790;37.572;2024-01-30T01:59:20;100829.35;;;1.50;76.99
20228;BME280;12195;55.790;37.572;2024-01-30T02:01:54;100827.64;;;1.37;76.84
20228;BME280;12195;55.790;37.572;2024-01-30T02:04:27;100819.03;;;1.36;76.94
20228;BME280;12195;55.790;37.572;2024-01-30T02:07:00;100812.11;;;1.49;77.02
20228;BME280;12195;55.790;37.572;2024-01-30T02:09:33;100829.38;;;1.45;76.76
20228;BME280;12195;55.790;37.572;2024-01-30T02:12:06;100814.72;;;1.41;77.08
20228;BME280;12195;55.790;37.572;2024-01-30T02:14:50;100825.92;;;1.49;76.95
20228;BME280;12195;55.790;37.572;2024-01-30T02:17:23;100822.48;;;1.55;76.47
20228;BME280;12195;55.790;37.572;2024-01-30T02:19:56;100815.58;;;1.48;76.54
20228;BME280;12195;55.790;37.572;2024-01-30T02:22:28;100825.05;;;1.47;76.55
20228;BME280;12195;55.790;37.572;2024-01-30T02:25:02;100826.80;;;1.47;76.68
20228;BME280;12195;55.790;37.572;2024-01-30T02:27:34;100819.90;;;1.44;76.97
20228;BME280;12195;55.790;37.572;2024-01-30T02:30:08;100807.81;;;1.51;76.82
20228;BME280;12195;55.790;37.572;2024-01-30T02:32:40;100821.62;;;1.60;76.89
20228;BME280;12195;55.790;37.572;2024-01-30T02:35:14;100810.41;;;1.51;76.71
20228;BME280;12195;55.790;37.572;2024-01-30T02:37:47;100820.75;;;1.63;76.40
20228;BME280;12195;55.790;37.572;2024-01-30T02:40:19;100816.44;;;1.60;76.23
20228;BME280;12195;55.790;37.572;2024-01-30T02:42:53;100824.19;;;1.53;76.49
20228;BME280;12195;55.790;37.572;2024-01-30T02:45:25;100826.80;;;1.60;76.30
20228;BME280;12195;55.790;37.572;2024-01-30T02:47:58;100813.84;;;1.56;76.33
20228;BME280;12195;55.790;37.572;2024-01-30T02:50:31;100806.06;;;1.65;76.13
20228;BME280;12195;55.790;37.572;2024-01-30T02:53:04;100807.81;;;1.64;76.06
20228;BME280;12195;55.790;37.572;2024-01-30T02:55:37;100811.27;;;1.60;76.22
20228;BME280;12195;55.790;37.572;2024-01-30T02:58:09;100804.34;;;1.58;76.40
20228;BME280;12195;55.790;37.572;2024-01-30T03:00:42;100808.66;;;1.66;76.38
20228;BME280;12195;55.790;37.572;2024-01-30T03:03:15;100817.28;;;1.61;76.42
20228;BME280;12195;55.790;37.572;2024-01-30T03:05:48;100820.75;;;1.64;76.20
20228;BME280;12195;55.790;37.572;2024-01-30T03:08:21;100819.00;;;1.65;76.16
20228;BME280;12195;55.790;37.572;2024-01-30T03:10:53;100819.87;;;1.61;76.40
20228;BME280;12195;55.790;37.572;2024-01-30T03:13:26;100832.81;;;1.76;76.28
20228;BME280;12195;55.790;37.572;2024-01-30T03:16:00;100823.27;;;1.88;75.79
20228;BME280;12195;55.790;37.572;2024-01-30T03:18:33;100833.67;;;1.70;75.95
20228;BME280;12195;55.790;37.572;2024-01-30T03:21:06;100836.25;;;1.69;76.01
20228;BME280;12195;55.790;37.572;2024-01-30T03:23:39;100843.16;;;1.73;75.95
20228;BME280;12195;55.790;37.572;2024-01-30T03:26:11;100837.11;;;1.75;75.97
20228;BME280;12195;55.790;37.572;2024-01-30T03:28:44;100839.69;;;1.74;76.14
20228;BME280;12195;55.790;37.572;2024-01-30T03:31:17;100850.92;;;1.73;76.33
20228;BME280;12195;55.790;37.572;2024-01-30T03:33:51;100841.44;;;1.75;76.37
20228;BME280;12195;55.790;37.572;2024-01-30T03:36:24;100837.98;;;1.74;76.60
20228;BME280;12195;55.790;37.572;2024-01-30T03:38:58;100837.98;;;1.76;76.81
20228;BME280;12195;55.790;37.572;2024-01-30T03:41:31;100828.47;;;1.79;76.77
20228;BME280;12195;55.790;37.572;2024-01-30T03:44:04;100831.06;;;1.81;76.88
20228;BME280;12195;55.790;37.572;2024-01-30T03:46:37;100833.66;;;1.84;76.78
20228;BME280;12195;55.790;37.572;2024-01-30T03:49:10;100846.61;;;1.85;76.94
20228;BME280;12195;55.790;37.572;2024-01-30T03:51:43;100843.99;;;1.90;76.84
20228;BME280;12195;55.790;37.572;2024-01-30T03:54:16;100849.17;;;1.93;76.72
20228;BME280;12195;55.790;37.572;2024-01-30T03:56:49;100847.45;;;1.93;76.76
20228;BME280;12195;55.790;37.572;2024-01-30T03:59:26;100841.38;;;2.08;76.45
20228;BME280;12195;55.790;37.572;2024-01-30T04:02:00;100848.28;;;2.06;76.25
20228;BME280;12195;55.790;37.572;2024-01-30T04:04:33;100851.73;;;2.02;76.25
20228;BME280;12195;55.790;37.572;2024-01-30T04:07:05;100853.43;;;2.19;75.86
20228;BME280;12195;55.790;37.572;2024-01-30T04:09:38;100861.23;;;2.10;75.50
20228;BME280;12195;55.790;37.572;2024-01-30T04:12:11;100850.87;;;2.09;75.72
20228;BME280;12195;55.790;37.572;2024-01-30T04:14:44;100855.17;;;2.07;76.01
20228;BME280;12195;55.790;37.572;2024-01-30T04:17:17;100849.16;;;2.09;76.26
20228;BME280;12195;55.790;37.572;2024-01-30T04:19:51;100844.81;;;2.13;76.06
20228;BME280;12195;55.790;37.572;2024-01-30T04:22:25;100851.64;;;2.35;75.79
20228;BME280;12195;55.790;37.572;2024-01-30T04:24:59;100849.12;;;2.20;75.36
20228;BME280;12195;55.790;37.572;2024-01-30T04:27:33;100840.48;;;2.18;75.77
20228;BME280;12195;55.790;37.572;2024-01-30T04:30:07;100841.35;;;2.15;76.08
20228;BME280;12195;55.790;37.572;2024-01-30T04:32:40;100840.48;;;2.15;76.21
20228;BME280;12195;55.790;37.572;2024-01-30T04:35:14;100837.89;;;2.21;76.18
20228;BME280;12195;55.790;37.572;2024-01-30T04:37:47;100842.19;;;2.25;76.00
20228;BME280;12195;55.790;37.572;2024-01-30T04:40:20;100837.85;;;2.27;75.95
20228;BME280;12195;55.790;37.572;2024-01-30T04:42:53;100843.91;;;2.27;76.30
20228;BME280;12195;55.790;37.572;2024-01-30T04:45:26;100855.98;;;2.34;75.63
20228;BME280;12195;55.790;37.572;2024-01-30T04:48:00;100845.62;;;2.28;76.21
20228;BME280;12195;55.790;37.572;2024-01-30T04:50:33;100855.98;;;2.34;76.00
20228;BME280;12195;55.790;37.572;2024-01-30T04:53:07;100850.77;;;2.39;75.64
20228;BME280;12195;55.790;37.572;2024-01-30T04:55:41;100849.89;;;2.43;75.83
20228;BME280;12195;55.790;37.572;2024-01-30T04:58:15;100849.05;;;2.41;75.75
20228;BME280;12195;55.790;37.572;2024-01-30T05:00:49;100846.42;;;2.45;75.48
20228;BME280;12195;55.790;37.572;2024-01-30T05:03:24;100838.69;;;2.42;75.81
20228;BME280;12195;55.790;37.572;2024-01-30T05:05:59;100833.42;;;2.56;75.34
20228;BME280;12195;55.790;37.572;2024-01-30T05:08:32;100849.02;;;2.48;75.36
20228;BME280;12195;55.790;37.572;2024-01-30T05:11:08;100841.23;;;2.48;75.10
20228;BME280;12195;55.790;37.572;2024-01-30T05:13:43;100833.50;;;2.42;75.55
20228;BME280;12195;55.790;37.572;2024-01-30T05:16:16;100839.52;;;2.46;75.26
20228;BME280;12195;55.790;37.572;2024-01-30T05:18:50;100840.40;;;2.43;75.54
20228;BME280;12195;55.790;37.572;2024-01-30T05:21:23;100846.38;;;2.56;75.52
20228;BME280;12195;55.790;37.572;2024-01-30T05:23:56;100846.42;;;2.50;75.39
20228;BME280;12195;55.790;37.572;2024-01-30T05:26:30;100852.44;;;2.58;75.09
20228;BME280;12195;55.790;37.572;2024-01-30T05:29:04;100859.38;;;2.51;75.40
20228;BME280;12195;55.790;37.572;2024-01-30T05:31:38;100861.09;;;2.48;75.76
20228;BME280;12195;55.790;37.572;2024-01-30T05:34:11;100854.20;;;2.48;76.08
20228;BME280;12195;55.790;37.572;2024-01-30T05:36:44;100858.50;;;2.48;76.28
20228;BME280;12195;55.790;37.572;2024-01-30T05:39:18;100859.38;;;2.53;76.36
20228;BME280;12195;55.790;37.572;2024-01-30T05:41:51;100854.14;;;2.62;76.40
20228;BME280;12195;55.790;37.572;2024-01-30T05:44:24;100862.80;;;2.61;76.45
20228;BME280;12195;55.790;37.572;2024-01-30T05:46:57;100855.86;;;2.61;76.24
20228;BME280;12195;55.790;37.572;2024-01-30T05:49:32;100854.98;;;2.68;75.76
20228;BME280;12195;55.790;37.572;2024-01-30T05:52:05;100867.05;;;2.74;75.46
20228;BME280;12195;55.790;37.572;2024-01-30T05:54:38;100874.00;;;2.69;75.62
20228;BME280;12195;55.790;37.572;2024-01-30T05:57:11;100876.55;;;2.72;75.37
20228;BME280;12195;55.790;37.572;2024-01-30T05:59:45;100878.31;;;2.70;75.80
20228;BME280;12195;55.790;37.572;2024-01-30T06:02:20;100872.24;;;2.72;75.49
20228;BME280;12195;55.790;37.572;2024-01-30T06:04:53;100878.30;;;2.73;75.59
20228;BME280;12195;55.790;37.572;2024-01-30T06:07:26;100876.55;;;2.75;75.47
20228;BME280;12195;55.790;37.572;2024-01-30T06:10:00;100877.33;;;2.89;75.06
20228;BME280;12195;55.790;37.572;2024-01-30T06:12:34;100879.97;;;2.83;75.00
20228;BME280;12195;55.790;37.572;2024-01-30T06:15:08;100890.34;;;2.86;75.12
20228;BME280;12195;55.790;37.572;2024-01-30T06:17:42;100879.08;;;2.90;74.88
20228;BME280;12195;55.790;37.572;2024-01-30T06:20:16;100886.88;;;2.85;75.50
20228;BME280;12195;55.790;37.572;2024-01-30T06:22:49;100885.11;;;2.89;75.08
20228;BME280;12195;55.790;37.572;2024-01-30T06:25:23;100885.09;;;2.98;74.58
20228;BME280;12195;55.790;37.572;2024-01-30T06:27:56;100888.57;;;2.95;74.97
20228;BME280;12195;55.790;37.572;2024-01-30T06:30:30;100888.52;;;3.01;75.02
20228;BME280;12195;55.790;37.572;2024-01-30T06:33:03;100895.37;;;3.11;74.62
20228;BME280;12195;55.790;37.572;2024-01-30T06:35:37;100896.25;;;3.09;74.32
20228;BME280;12195;55.790;37.572;2024-01-30T06:38:14;100898.01;;;3.07;74.64
20228;BME280;12195;55.790;37.572;2024-01-30T06:40:48;100891.94;;;3.08;74.58
20228;BME280;12195;55.790;37.572;2024-01-30T06:43:21;100897.08;;;3.15;74.34
20228;BME280;12195;55.790;37.572;2024-01-30T06:45:54;100900.49;;;3.22;73.94
20228;BME280;12195;55.790;37.572;2024-01-30T06:48:27;100908.26;;;3.28;74.12
20228;BME280;12195;55.790;37.572;2024-01-30T06:51:00;100901.42;;;3.15;74.11
20228;BME280;12195;55.790;37.572;2024-01-30T06:53:35;100913.52;;;3.13;74.61
20228;BME280;12195;55.790;37.572;2024-01-30T06:56:08;100906.50;;;3.30;74.25
20228;BME280;12195;55.790;37.572;2024-01-30T06:58:43;100910.03;;;3.21;74.47
20228;BME280;12195;55.790;37.572;2024-01-30T07:01:16;100904.80;;;3.26;74.86
20228;BME280;12195;55.790;37.572;2024-01-30T07:03:49;100905.66;;;3.29;74.35
20228;BME280;12195;55.790;37.572;2024-01-30T07:06:23;100913.44;;;3.32;74.31
20228;BME280;12195;55.790;37.572;2024-01-30T07:08:56;100915.16;;;3.32;75.02
20228;BME280;12195;55.790;37.572;2024-01-30T07:11:29;100909.08;;;3.34;74.53
20228;BME280;12195;55.790;37.572;2024-01-30T07:14:02;100915.10;;;3.38;74.51
20228;BME280;12195;55.790;37.572;2024-01-30T07:16:39;100920.28;;;3.42;74.38
20228;BME280;12195;55.790;37.572;2024-01-30T07:19:11;100913.33;;;3.44;74.38
20228;BME280;12195;55.790;37.572;2024-01-30T07:21:45;100912.47;;;3.47;74.87
20228;BME280;12195;55.790;37.572;2024-01-30T07:24:19;100930.59;;;3.53;74.90
20228;BME280;12195;55.790;37.572;2024-01-30T07:26:53;100927.93;;;3.60;75.17
20228;BME280;12195;55.790;37.572;2024-01-30T07:29:26;100920.93;;;3.71;74.16
20228;BME280;12195;55.790;37.572;2024-01-30T07:31:59;100935.52;;;3.89;74.19
20228;BME280;12195;55.790;37.572;2024-01-30T07:34:33;100935.61;;;3.77;74.47
20228;BME280;12195;55.790;37.572;2024-01-30T07:37:07;100931.23;;;3.82;74.14
20228;BME280;12195;55.790;37.572;2024-01-30T07:39:41;100935.55;;;3.83;73.78
20228;BME280;12195;55.790;37.572;2024-01-30T07:42:14;100938.20;;;3.78;74.09
20228;BME280;12195;55.790;37.572;2024-01-30T07:44:49;100941.64;;;3.79;74.49
20228;BME280;12195;55.790;37.572;2024-01-30T07:47:24;100949.34;;;3.89;73.65
20228;BME280;12195;55.790;37.572;2024-01-30T07:49:58;100941.60;;;3.86;73.85
20228;BME280;12195;55.790;37.572;2024-01-30T07:52:31;100933.75;;;3.91;74.40
20228;BME280;12195;55.790;37.572;2024-01-30T07:55:06;100932.66;;;4.16;73.42
20228;BME280;12195;55.790;37.572;2024-01-30T07:57:40;100934.52;;;4.03;73.05
20228;BME280;12195;55.790;37.572;2024-01-30T08:00:15;100920.64;;;4.06;72.48
20228;BME280;12195;55.790;37.572;2024-01-30T08:02:55;100927.55;;;4.07;73.02
20228;BME280;12195;55.790;37.572;2024-01-30T08:05:29;100938.74;;;4.15;71.94
20228;BME280;12195;55.790;37.572;2024-01-30T08:08:02;100936.16;;;4.13;71.86
20228;BME280;12195;55.790;37.572;2024-01-30T08:10:37;100936.22;;;4.07;72.91
20228;BME280;12195;55.790;37.572;2024-01-30T08:13:10;100924.13;;;4.03;73.29
20228;BME280;12195;55.790;37.572;2024-01-30T08:15:49;100921.34;;;4.21;72.60
20228;BME280;12195;55.790;37.572;2024-01-30T08:18:23;100925.02;;;4.02;72.31
20228;BME280;12195;55.790;37.572;2024-01-30T08:20:56;100925.84;;;4.06;72.62
20228;BME280;12195;55.790;37.572;2024-01-30T08:23:30;100934.53;;;4.02;72.38
20228;BME280;12195;55.790;37.572;2024-01-30T08:26:05;100938.91;;;3.97;72.25
20228;BME280;12195;55.790;37.572;2024-01-30T08:28:38;100941.55;;;3.91;72.79
20228;BME280;12195;55.790;37.572;2024-01-30T08:31:12;100933.74;;;3.92;73.19
20228;BME280;12195;55.790;37.572;2024-01-30T08:33:46;100942.41;;;3.94;73.64
20228;BME280;12195;55.790;37.572;2024-01-30T08:36:20;100944.95;;;3.97;73.56
20228;BME280;12195;55.790;37.572;2024-01-30T08:38:53;100929.26;;;4.09;72.39
20228;BME280;12195;55.790;37.572;2024-01-30T08:41:28;100936.23;;;4.06;72.50
20228;BME280;12195;55.790;37.572;2024-01-30T08:44:02;100933.63;;;4.06;72.91
20228;BME280;12195;55.790;37.572;2024-01-30T08:46:35;100924.92;;;4.13;72.99
20228;BME280;12195;55.790;37.572;2024-01-30T08:49:08;100919.66;;;4.17;73.27
20228;BME280;12195;55.790;37.572;2024-01-30T08:51:42;100923.93;;;4.24;73.44
20228;BME280;12195;55.790;37.572;2024-01-30T08:54:15;100920.39;;;4.33;72.64
20228;BME280;12195;55.790;37.572;2024-01-30T08:56:49;100935.09;;;4.37;72.08
20228;BME280;12195;55.790;37.572;2024-01-30T08:59:24;100936.81;;;4.36;71.58
20228;BME280;12195;55.790;37.572;2024-01-30T09:01:57;100926.42;;;4.35;71.71
20228;BME280;12195;55.790;37.572;2024-01-30T09:04:32;100936.02;;;4.30;71.37
20228;BME280;12195;55.790;37.572;2024-01-30T09:07:05;100916.91;;;4.34;71.01
20228;BME280;12195;55.790;37.572;2024-01-30T09:09:42;100936.04;;;4.25;71.59
20228;BME280;12195;55.790;37.572;2024-01-30T09:12:15;100936.94;;;4.23;71.90
20228;BME280;12195;55.790;37.572;2024-01-30T09:14:50;100932.63;;;4.20;72.28
20228;BME280;12195;55.790;37.572;2024-01-30T09:17:23;100926.56;;;4.20;71.96
20228;BME280;12195;55.790;37.572;2024-01-30T09:19:56;100929.03;;;4.33;71.68
20228;BME280;12195;55.790;37.572;2024-01-30T09:22:30;100929.05;;;4.30;71.77
20228;BME280;12195;55.790;37.572;2024-01-30T09:25:04;100934.19;;;4.39;71.76
20228;BME280;12195;55.790;37.572;2024-01-30T09:27:37;100935.00;;;4.44;71.87
20228;BME280;12195;55.790;37.572;2024-01-30T09:30:11;100928.86;;;4.51;72.40
20228;BME280;12195;55.790;37.572;2024-01-30T09:32:44;100924.26;;;4.73;71.70
20228;BME280;12195;55.790;37.572;2024-01-30T09:35:17;100927.60;;;4.84;72.03
20228;BME280;12195;55.790;37.572;2024-01-30T09:37:51;100929.95;;;5.03;70.96
20228;BME280;12195;55.790;37.572;2024-01-30T09:40:24;100927.19;;;5.15;71.30
20228;BME280;12195;55.790;37.572;2024-01-30T09:42:58;100928.59;;;5.39;71.31
20228;BME280;12195;55.790;37.572;2024-01-30T09:45:35;100917.23;;;5.44;72.15
20228;BME280;12195;55.790;37.572;2024-01-30T09:48:09;100918.00;;;5.51;69.89
20228;BME280;12195;55.790;37.572;2024-01-30T09:50:43;100913.82;;;5.41;69.69
20228;BME280;12195;55.790;37.572;2024-01-30T09:53:16;100914.01;;;5.27;70.01
20228;BME280;12195;55.790;37.572;2024-01-30T09:55:51;100910.63;;;5.21;69.71
20228;BME280;12195;55.790;37.572;2024-01-30T09:58:25;100907.41;;;5.04;70.70
20228;BME280;12195;55.790;37.572;2024-01-30T10:00:59;100904.86;;;4.98;70.55
20228;BME280;12195;55.790;37.572;2024-01-30T10:03:32;100917.77;;;5.08;70.79
20228;BME280;12195;55.790;37.572;2024-01-30T10:06:05;100920.41;;;5.04;70.35
20228;BME280;12195;55.790;37.572;2024-01-30T10:08:39;100908.35;;;4.97;70.44
20228;BME280;12195;55.790;37.572;2024-01-30T10:11:13;100917.92;;;4.96;70.55
20228;BME280;12195;55.790;37.572;2024-01-30T10:13:46;100909.91;;;5.10;70.60
20228;BME280;12195;55.790;37.572;2024-01-30T10:16:20;100910.12;;;4.95;70.46
20228;BME280;12195;55.790;37.572;2024-01-30T10:18:53;100920.29;;;5.13;70.17
20228;BME280;12195;55.790;37.572;2024-01-30T10:21:27;100926.59;;;4.94;70.09
20228;BME280;12195;55.790;37.572;2024-01-30T10:24:00;100922.27;;;4.94;69.60
20228;BME280;12195;55.790;37.572;2024-01-30T10:26:33;100919.76;;;4.88;69.55
20228;BME280;12195;55.790;37.572;2024-01-30T10:29:06;100923.31;;;4.80;70.38
20228;BME280;12195;55.790;37.572;2024-01-30T10:31:40;100923.30;;;4.81;70.78
20228;BME280;12195;55.790;37.572;2024-01-30T10:34:15;100917.23;;;4.81;70.50
20228;BME280;12195;55.790;37.572;2024-01-30T10:36:51;100928.53;;;4.78;70.15
20228;BME280;12195;55.790;37.572;2024-01-30T10:39:27;100913.02;;;4.72;69.97
20228;BME280;12195;55.790;37.572;2024-01-30T10:42:04;100919.14;;;4.67;70.14
20228;BME280;12195;55.790;37.572;2024-01-30T10:44:44;100912.25;;;4.63;70.03
20228;BME280;12195;55.790;37.572;2024-01-30T10:47:15;100909.65;;;4.63;70.85
20228;BME280;12195;55.790;37.572;2024-01-30T10:49:52;100904.42;;;4.66;71.42
20228;BME280;12195;55.790;37.572;2024-01-30T10:52:29;100899.99;;;4.74;71.03
20228;BME280;12195;55.790;37.572;2024-01-30T10:55:04;100915.41;;;4.87;71.41
20228;BME280;12195;55.790;37.572;2024-01-30T10:57:37;100900.50;;;5.01;71.40
20228;BME280;12195;55.790;37.572;2024-01-30T11:00:14;100911.36;;;5.32;71.20
20228;BME280;12195;55.790;37.572;2024-01-30T11:02:48;100912.89;;;5.45;71.43
20228;BME280;12195;55.790;37.572;2024-01-30T11:05:25;100900.52;;;5.59;70.41
20228;BME280;12195;55.790;37.572;2024-01-30T11:08:14;100908.87;;;5.82;69.69
20228;BME280;12195;55.790;37.572;2024-01-30T11:10:50;100904.81;;;5.61;67.98
20228;BME280;12195;55.790;37.572;2024-01-30T11:13:29;100911.86;;;5.55;67.21
20228;BME280;12195;55.790;37.572;2024-01-30T11:16:04;100906.88;;;5.41;67.65
20228;BME280;12195;55.790;37.572;2024-01-30T11:18:38;100913.17;;;5.27;67.99
20228;BME280;12195;55.790;37.572;2024-01-30T11:21:12;100915.88;;;5.18;67.82
20228;BME280;12195;55.790;37.572;2024-01-30T11:23:46;100915.11;;;5.10;68.51
20228;BME280;12195;55.790;37.572;2024-01-30T11:26:23;100916.00;;;5.09;68.52
20228;BME280;12195;55.790;37.572;2024-01-30T11:28:56;100923.02;;;5.04;68.32
20228;BME280;12195;55.790;37.572;2024-01-30T11:31:30;100919.65;;;4.96;68.72
20228;BME280;12195;55.790;37.572;2024-01-30T11:34:03;100919.69;;;4.91;69.26
20228;BME280;12195;55.790;37.572;2024-01-30T11:36:38;100929.27;;;4.89;69.83
20228;BME280;12195;55.790;37.572;2024-01-30T11:39:11;100933.59;;;4.90;69.62
20228;BME280;12195;55.790;37.572;2024-01-30T11:41:46;100937.98;;;4.87;69.11
20228;BME280;12195;55.790;37.572;2024-01-30T11:44:20;100948.41;;;4.85;69.10
20228;BME280;12195;55.790;37.572;2024-01-30T11:46:52;100948.28;;;4.96;69.58
20228;BME280;12195;55.790;37.572;2024-01-30T11:49:26;100955.45;;;4.76;69.83
20228;BME280;12195;55.790;37.572;2024-01-30T11:51:59;100949.45;;;4.71;69.92
20228;BME280;12195;55.790;37.572;2024-01-30T11:54:32;100953.78;;;4.69;69.68
20228;BME280;12195;55.790;37.572;2024-01-30T11:57:05;100950.38;;;4.64;70.47
20228;BME280;12195;55.790;37.572;2024-01-30T11:59:38;100958.96;;;4.72;69.62
20228;BME280;12195;55.790;37.572;2024-01-30T12:02:16;100932.29;;;4.53;69.99
20228;BME280;12195;55.790;37.572;2024-01-30T12:04:47;100957.38;;;4.59;70.37
20228;BME280;12195;55.790;37.572;2024-01-30T12:07:19;100962.59;;;4.56;70.19
20228;BME280;12195;55.790;37.572;2024-01-30T12:09:53;100971.28;;;4.56;70.73
20228;BME280;12195;55.790;37.572;2024-01-30T12:12:27;100966.06;;;4.58;70.14
20228;BME280;12195;55.790;37.572;2024-01-30T12:15:00;100955.69;;;4.55;70.03
20228;BME280;12195;55.790;37.572;2024-01-30T12:17:34;100953.11;;;4.52;70.90
20228;BME280;12195;55.790;37.572;2024-01-30T12:20:09;100957.48;;;4.50;71.20
20228;BME280;12195;55.790;37.572;2024-01-30T12:22:48;100956.57;;;4.54;71.07
20228;BME280;12195;55.790;37.572;2024-01-30T12:25:21;100959.17;;;4.54;70.41
20228;BME280;12195;55.790;37.572;2024-01-30T12:27:54;100959.19;;;4.51;70.66
20228;BME280;12195;55.790;37.572;2024-01-30T12:30:29;100960.08;;;4.50;71.05
20228;BME280;12195;55.790;37.572;2024-01-30T12:33:03;100960.06;;;4.51;70.91
20228;BME280;12195;55.790;37.572;2024-01-30T12:35:38;100963.50;;;4.53;70.88
20228;BME280;12195;55.790;37.572;2024-01-30T12:38:14;100958.30;;;4.53;70.94
20228;BME280;12195;55.790;37.572;2024-01-30T12:40:47;100951.36;;;4.55;70.89
20228;BME280;12195;55.790;37.572;2024-01-30T12:43:23;100953.91;;;4.57;71.14
20228;BME280;12195;55.790;37.572;2024-01-30T12:45:59;100955.66;;;4.58;70.55
20228;BME280;12195;55.790;37.572;2024-01-30T12:48:33;100960.89;;;4.55;70.77
20228;BME280;12195;55.790;37.572;2024-01-30T12:51:06;100961.77;;;4.55;70.91
20228;BME280;12195;55.790;37.572;2024-01-30T12:53:39;100959.18;;;4.52;70.95
20228;BME280;12195;55.790;37.572;2024-01-30T12:56:12;100966.09;;;4.53;70.92
20228;BME280;12195;55.790;37.572;2024-01-30T12:58:46;100966.06;;;4.58;70.50
20228;BME280;12195;55.790;37.572;2024-01-30T13:01:20;100977.38;;;4.54;70.91
20228;BME280;12195;55.790;37.572;2024-01-30T13:03:53;100975.68;;;4.50;71.11
20228;BME280;12195;55.790;37.572;2024-01-30T13:06:27;100968.73;;;4.49;71.29
20228;BME280;12195;55.790;37.572;2024-01-30T13:09:00;100966.99;;;4.51;70.87
20228;BME280;12195;55.790;37.572;2024-01-30T13:11:35;100976.59;;;4.46;71.12
20228;BME280;12195;55.790;37.572;2024-01-30T13:14:08;100968.81;;;4.41;71.00
20228;BME280;12195;55.790;37.572;2024-01-30T13:16:41;100978.38;;;4.41;70.95
20228;BME280;12195;55.790;37.572;2024-01-30T13:19:15;100968.83;;;4.40;71.10
20228;BME280;12195;55.790;37.572;2024-01-30T13:21:48;100978.41;;;4.36;71.41
20228;BME280;12195;55.790;37.572;2024-01-30T13:24:22;100983.61;;;4.35;71.53
20228;BME280;12195;55.790;37.572;2024-01-30T13:26:56;100984.40;;;4.44;70.68